createdAt,value
2022-11-02T00:01:44.363Z,2.08
2022-11-02T00:04:11.258Z,1.25
2022-11-02T00:06:37.871Z,1.92
2022-11-02T00:09:04.619Z,2.20
2022-11-02T00:11:33.579Z,2.00
2022-11-02T00:14:00.085Z,1.90
2022-11-02T00:16:26.575Z,2.60
2022-11-02T00:18:57.011Z,1.50
2022-11-02T00:21:25.757Z,2.20
2022-11-02T00:23:53.074Z,1.98
2022-11-02T00:26:19.754Z,1.73
2022-11-02T00:28:46.471Z,1.63
2022-11-02T00:31:12.874Z,1.55
2022-11-02T00:33:39.340Z,1.85
2022-11-02T00:36:05.996Z,1.58
2022-11-02T00:38:32.539Z,1.65
2022-11-02T00:40:59.475Z,1.63
2022-11-02T00:43:25.970Z,1.38
2022-11-02T00:45:52.572Z,1.90
2022-11-02T00:48:19.083Z,1.80
2022-11-02T00:50:45.528Z,2.10
2022-11-02T00:53:12.077Z,1.60
2022-11-02T00:55:38.439Z,1.52
2022-11-02T00:58:05.145Z,1.90
2022-11-02T01:00:32.188Z,2.08
2022-11-02T01:03:02.480Z,1.88
2022-11-02T01:05:29.774Z,1.58
2022-11-02T01:07:57.006Z,1.67
2022-11-02T01:10:25.123Z,1.73
2022-11-02T01:12:51.600Z,1.70
2022-11-02T01:15:18.167Z,1.48
2022-11-02T01:17:44.716Z,1.83
2022-11-02T01:20:11.374Z,1.83
2022-11-02T01:22:37.907Z,1.63
2022-11-02T01:25:04.720Z,1.38
2022-11-02T01:27:32.297Z,1.88
2022-11-02T01:29:58.739Z,1.67
2022-11-02T01:32:25.199Z,1.40
2022-11-02T01:34:51.859Z,1.55
2022-11-02T01:37:18.205Z,1.40
2022-11-02T01:39:44.744Z,1.80
2022-11-02T01:42:22.458Z,1.48
2022-11-02T01:44:49.058Z,1.60
2022-11-02T01:47:25.017Z,1.73
2022-11-02T01:49:57.085Z,1.60
2022-11-02T01:52:35.542Z,1.52
2022-11-02T01:55:13.487Z,1.95
2022-11-02T01:57:43.586Z,1.40
2022-11-02T02:00:13.670Z,3.20
2022-11-02T02:02:47.420Z,1.60
2022-11-02T02:05:16.271Z,1.77
2022-11-02T02:07:43.974Z,1.83
2022-11-02T02:10:11.316Z,1.75
2022-11-02T02:12:41.195Z,1.30
2022-11-02T02:15:08.630Z,2.85
2022-11-02T02:17:45.355Z,1.55
2022-11-02T02:20:24.021Z,1.45
2022-11-02T02:23:19.875Z,1.55
2022-11-02T02:26:11.382Z,1.45
2022-11-02T02:28:43.907Z,2.10
2022-11-02T02:31:31.303Z,1.85
2022-11-02T02:34:17.498Z,1.50
2022-11-02T02:37:03.799Z,1.98
2022-11-02T02:39:57.555Z,1.20
2022-11-02T02:42:31.872Z,1.95
2022-11-02T02:45:14.032Z,1.53
2022-11-02T02:47:50.877Z,1.50
2022-11-02T02:50:22.352Z,2.00
2022-11-02T02:52:50.902Z,1.75
2022-11-02T02:55:22.386Z,1.55
2022-11-02T02:57:51.657Z,2.35
2022-11-02T03:00:18.791Z,2.08
2022-11-02T03:03:00.742Z,1.90
2022-11-02T03:05:34.053Z,1.67
2022-11-02T03:08:13.555Z,1.90
2022-11-02T03:10:56.903Z,1.67
2022-11-02T03:13:35.219Z,2.08
2022-11-02T03:16:11.375Z,1.85
2022-11-02T03:19:00.179Z,2.10
2022-11-02T03:21:42.136Z,1.85
2022-11-02T03:24:47.207Z,2.00
2022-11-02T03:27:23.286Z,1.50
2022-11-02T03:30:14.559Z,1.73
2022-11-02T03:33:01.575Z,1.70
2022-11-02T03:35:44.834Z,1.52
2022-11-02T03:38:46.873Z,1.98
2022-11-02T03:41:15.431Z,2.22
2022-11-02T03:43:43.163Z,1.48
2022-11-02T03:46:11.431Z,1.75
2022-11-02T03:48:46.459Z,1.88
2022-11-02T03:51:15.925Z,1.80
2022-11-02T03:53:49.375Z,1.58
2022-11-02T03:56:35.630Z,2.35
2022-11-02T03:59:02.014Z,2.55
2022-11-02T04:01:30.640Z,2.13
2022-11-02T04:03:57.201Z,2.50
2022-11-02T04:06:25.425Z,1.70
2022-11-02T04:08:52.181Z,1.98
2022-11-02T04:11:37.561Z,2.42
2022-11-02T04:14:22.419Z,1.88
2022-11-02T04:16:48.862Z,2.13
2022-11-02T04:19:27.471Z,2.15
2022-11-02T04:22:17.366Z,2.22
2022-11-02T04:25:02.248Z,2.25
2022-11-02T04:27:28.789Z,2.40
2022-11-02T04:29:55.384Z,1.95
2022-11-02T04:32:40.462Z,3.00
2022-11-02T04:35:08.323Z,1.70
2022-11-02T04:38:00.720Z,1.65
2022-11-02T04:40:28.030Z,1.50
2022-11-02T04:42:54.444Z,2.15
2022-11-02T04:45:21.103Z,1.88
2022-11-02T04:47:47.571Z,1.92
2022-11-02T04:50:14.143Z,1.40
2022-11-02T04:52:40.639Z,1.83
2022-11-02T04:55:07.931Z,1.77
2022-11-02T04:57:34.337Z,1.90
2022-11-02T05:00:01.229Z,2.17
2022-11-02T05:02:27.882Z,1.60
2022-11-02T05:04:54.540Z,2.05
2022-11-02T05:07:20.987Z,1.88
2022-11-02T05:09:47.512Z,1.80
2022-11-02T05:12:13.891Z,2.65
2022-11-02T05:14:40.273Z,2.10
2022-11-02T05:17:06.674Z,2.35
2022-11-02T05:19:33.264Z,1.85
2022-11-02T05:21:59.715Z,1.33
2022-11-02T05:24:26.423Z,1.58
2022-11-02T05:26:54.194Z,2.20
2022-11-02T05:29:20.833Z,2.38
2022-11-02T05:31:47.210Z,2.53
2022-11-02T05:34:13.765Z,2.03
2022-11-02T05:36:40.143Z,1.88
2022-11-02T05:39:06.666Z,1.92
2022-11-02T05:41:33.106Z,2.10
2022-11-02T05:43:59.672Z,2.00
2022-11-02T05:46:26.329Z,2.25
2022-11-02T05:48:53.076Z,2.08
2022-11-02T05:51:19.457Z,1.80
2022-11-02T05:53:45.948Z,2.33
2022-11-02T05:56:14.595Z,2.20
2022-11-02T05:58:41.470Z,1.80
2022-11-02T06:01:08.863Z,1.95
2022-11-02T06:03:36.189Z,2.70
2022-11-02T06:06:07.726Z,1.70
2022-11-02T06:08:36.080Z,2.03
2022-11-02T06:11:07.943Z,2.20
2022-11-02T06:13:34.989Z,1.60
2022-11-02T06:16:03.393Z,2.47
2022-11-02T06:18:34.107Z,1.83
2022-11-02T06:21:00.670Z,1.75
2022-11-02T06:23:29.683Z,2.20
2022-11-02T06:25:58.132Z,2.13
2022-11-02T06:28:32.005Z,1.80
2022-11-02T06:30:58.507Z,2.05
2022-11-02T06:33:26.167Z,1.70
2022-11-02T06:35:54.208Z,2.10
2022-11-02T06:38:21.404Z,1.90
2022-11-02T06:40:58.927Z,2.28
2022-11-02T06:43:26.473Z,1.25
2022-11-02T06:45:58.994Z,1.80
2022-11-02T06:48:34.882Z,1.50
2022-11-02T06:51:02.959Z,1.50
2022-11-02T06:53:29.890Z,1.92
2022-11-02T06:55:57.692Z,1.65
2022-11-02T06:58:25.135Z,1.65
2022-11-02T07:01:01.396Z,1.50
2022-11-02T07:03:28.929Z,1.90
2022-11-02T07:05:55.992Z,1.70
2022-11-02T07:08:22.705Z,1.50
2022-11-02T07:10:50.236Z,1.70
2022-11-02T07:13:16.832Z,1.42
2022-11-02T07:15:43.453Z,1.73
2022-11-02T07:18:10.060Z,1.48
2022-11-02T07:20:38.354Z,1.42
2022-11-02T07:23:05.915Z,2.28
2022-11-02T07:25:33.410Z,1.70
2022-11-02T07:28:01.835Z,1.48
2022-11-02T07:30:29.928Z,1.30
2022-11-02T07:32:58.807Z,1.60
2022-11-02T07:35:26.714Z,1.52
2022-11-02T07:38:05.972Z,1.70
2022-11-02T07:40:34.859Z,1.65
2022-11-02T07:43:03.082Z,1.73
2022-11-02T07:45:29.987Z,1.50
2022-11-02T07:47:56.494Z,1.67
2022-11-02T07:50:25.415Z,1.73
2022-11-02T07:52:54.248Z,1.83
2022-11-02T07:55:23.293Z,1.70
2022-11-02T07:58:04.525Z,2.03
2022-11-02T08:00:37.700Z,1.92
2022-11-02T08:03:06.393Z,2.13
2022-11-02T08:05:38.958Z,1.40
2022-11-02T08:08:14.461Z,1.95
2022-11-02T08:10:41.758Z,1.80
2022-11-02T08:13:09.785Z,1.70
2022-11-02T08:15:37.095Z,1.88
2022-11-02T08:18:08.308Z,1.73
2022-11-02T08:20:36.425Z,1.50
2022-11-02T08:23:03.937Z,2.35
2022-11-02T08:25:30.888Z,1.77
2022-11-02T08:27:59.185Z,1.88
2022-11-02T08:30:27.379Z,1.70
2022-11-02T08:32:56.746Z,1.20
2022-11-02T08:35:24.342Z,1.85
2022-11-02T08:37:54.997Z,1.38
2022-11-02T08:40:21.694Z,2.13
2022-11-02T08:42:48.339Z,1.80
2022-11-02T08:45:14.867Z,1.80
2022-11-02T08:47:42.164Z,1.23
2022-11-02T08:50:09.771Z,2.17
2022-11-02T08:52:40.517Z,1.75
2022-11-02T08:55:07.868Z,1.65
2022-11-02T08:57:47.527Z,1.85
2022-11-02T09:00:14.318Z,1.90
2022-11-02T09:02:40.978Z,1.52
2022-11-02T09:05:08.016Z,1.20
2022-11-02T09:07:34.560Z,1.88
2022-11-02T09:10:00.983Z,1.25
2022-11-02T09:12:27.366Z,2.13
2022-11-02T09:14:53.865Z,1.63
2022-11-02T09:17:20.424Z,1.48
2022-11-02T09:19:46.883Z,1.52
2022-11-02T09:22:13.296Z,1.45
2022-11-02T09:24:40.222Z,1.45
2022-11-02T09:27:06.648Z,1.38
2022-11-02T09:29:33.482Z,1.77
2022-11-02T09:31:59.884Z,1.33
2022-11-02T09:34:26.326Z,1.40
2022-11-02T09:36:52.727Z,1.30
2022-11-02T09:39:20.539Z,1.50
2022-11-02T09:42:18.004Z,1.55
2022-11-02T09:44:53.816Z,1.38
2022-11-02T09:50:22.824Z,1.58
2022-11-02T09:52:59.003Z,1.77
2022-11-02T09:55:32.107Z,1.58
2022-11-02T09:58:12.415Z,1.25
2022-11-02T10:00:41.513Z,1.45
2022-11-02T10:03:28.425Z,1.13
2022-11-02T10:06:08.358Z,1.63
2022-11-02T10:08:47.595Z,1.50
2022-11-02T10:11:28.047Z,1.40
2022-11-02T10:13:57.434Z,1.02
2022-11-02T10:16:38.094Z,1.20
2022-11-02T10:19:13.887Z,1.63
2022-11-02T10:21:44.925Z,0.98
2022-11-02T10:24:37.118Z,0.98
2022-11-02T10:27:14.484Z,1.10
2022-11-02T10:29:53.061Z,1.20
2022-11-02T10:32:19.562Z,1.50
2022-11-02T10:34:58.482Z,1.50
2022-11-02T10:37:42.679Z,1.27
2022-11-02T10:40:35.316Z,1.40
2022-11-02T10:43:34.197Z,1.25
2022-11-02T10:46:32.297Z,1.42
2022-11-02T10:49:02.521Z,1.20
2022-11-02T10:51:30.493Z,1.27
2022-11-02T10:53:56.973Z,1.85
2022-11-02T10:56:29.141Z,1.50
2022-11-02T10:59:18.311Z,1.60
2022-11-02T11:02:10.332Z,1.10
2022-11-02T11:04:36.701Z,1.20
2022-11-02T11:07:21.287Z,1.27
2022-11-02T11:09:57.614Z,1.30
2022-11-02T11:12:38.272Z,1.80
2022-11-02T11:20:40.988Z,1.33
2022-11-02T11:23:09.509Z,1.23
2022-11-02T11:25:36.110Z,1.48
2022-11-02T11:28:03.036Z,1.25
2022-11-02T11:30:58.919Z,1.30
2022-11-02T11:33:21.192Z,1.15
2022-11-02T11:35:49.949Z,1.38
2022-11-02T11:38:20.281Z,2.25
2022-11-02T11:40:53.740Z,1.40
2022-11-02T11:43:24.524Z,1.70
2022-11-02T11:46:13.079Z,1.20
2022-11-02T11:48:40.796Z,1.08
2022-11-02T11:51:30.401Z,1.27
2022-11-02T11:54:24.096Z,0.68
2022-11-02T11:56:52.846Z,1.27
2022-11-02T11:59:20.291Z,1.30
2022-11-02T12:01:47.360Z,1.35
2022-11-02T12:04:27.265Z,1.27
2022-11-02T12:07:06.190Z,1.30
2022-11-02T12:09:47.309Z,1.30
2022-11-02T12:12:25.819Z,2.03
2022-11-02T12:15:25.438Z,1.20
2022-11-02T12:18:12.776Z,1.02
2022-11-02T12:20:56.439Z,1.10
2022-11-02T12:23:25.840Z,1.40
2022-11-02T12:26:00.267Z,1.20
2022-11-02T12:28:43.359Z,1.50
2022-11-02T12:31:12.751Z,1.17
2022-11-02T12:34:21.075Z,1.10
2022-11-02T12:37:41.146Z,1.20
2022-11-02T12:40:17.293Z,1.30
2022-11-02T12:43:11.139Z,1.63
2022-11-02T12:45:49.964Z,1.10
2022-11-02T12:48:31.031Z,1.38
2022-11-02T12:51:03.102Z,1.70
2022-11-02T12:53:48.927Z,1.10
2022-11-02T12:56:23.194Z,1.00
2022-11-02T12:58:49.900Z,1.70
2022-11-02T13:01:27.243Z,1.08
2022-11-02T13:04:27.883Z,0.93
2022-11-02T13:07:29.591Z,1.05
2022-11-02T13:10:20.452Z,1.30
2022-11-02T13:12:52.030Z,1.20
2022-11-02T13:15:24.491Z,1.05
2022-11-02T13:17:54.046Z,0.90
2022-11-02T13:20:27.365Z,1.63
2022-11-02T13:23:03.539Z,1.23
2022-11-02T13:25:33.221Z,1.95
2022-11-02T13:28:06.177Z,1.10
2022-11-02T13:30:33.731Z,1.13
2022-11-02T13:33:08.621Z,1.58
2022-11-02T13:38:27.805Z,1.35
2022-11-02T13:41:00.159Z,1.20
2022-11-02T13:43:32.875Z,1.38
2022-11-02T13:46:24.327Z,1.45
2022-11-02T13:48:55.634Z,1.40
2022-11-02T13:51:28.075Z,1.10
2022-11-02T13:54:00.948Z,1.60
2022-11-02T13:56:29.345Z,1.33
2022-11-02T13:59:09.221Z,1.40
2022-11-02T14:01:40.718Z,1.05
2022-11-02T14:04:10.464Z,1.60
2022-11-02T14:06:48.573Z,2.08
2022-11-02T14:09:33.834Z,1.02
2022-11-02T14:12:22.019Z,1.77
2022-11-02T14:15:13.553Z,1.30
2022-11-02T14:17:56.252Z,1.38
2022-11-02T14:20:40.903Z,1.02
2022-11-02T14:23:14.247Z,1.20
2022-11-02T14:25:51.021Z,1.10
2022-11-02T14:28:25.598Z,1.52
2022-11-02T14:30:58.279Z,2.22
2022-11-02T14:33:49.413Z,1.25
2022-11-02T14:36:15.902Z,1.60
2022-11-02T14:39:04.713Z,1.23
2022-11-02T14:42:06.823Z,1.45
2022-11-02T14:44:51.712Z,1.30
2022-11-02T14:47:19.025Z,1.55
2022-11-02T14:49:56.038Z,1.23
2022-11-02T14:52:32.880Z,1.40
2022-11-02T14:55:06.993Z,1.13
2022-11-02T14:57:40.422Z,1.52
2022-11-02T15:00:21.013Z,1.40
2022-11-02T15:02:48.640Z,1.92
2022-11-02T15:05:31.572Z,1.40
2022-11-02T15:08:06.655Z,1.73
2022-11-02T15:10:33.092Z,1.00
2022-11-02T15:13:18.337Z,1.90
2022-11-02T15:16:12.899Z,1.50
2022-11-02T15:18:40.582Z,1.50
2022-11-02T15:21:12.890Z,1.52
2022-11-02T15:24:19.762Z,1.48
2022-11-02T15:26:52.299Z,1.40
2022-11-02T15:29:36.844Z,1.52
2022-11-02T15:32:07.107Z,1.50
2022-11-02T15:34:40.511Z,1.70
2022-11-02T15:37:08.713Z,1.80
2022-11-02T15:39:35.680Z,1.40
2022-11-02T15:42:03.860Z,1.80
2022-11-02T15:44:51.753Z,1.50
2022-11-02T15:47:31.857Z,1.40
2022-11-02T15:50:30.639Z,1.33
2022-11-02T15:53:28.843Z,1.55
2022-11-02T15:56:16.043Z,1.23
2022-11-02T15:59:24.063Z,1.45
2022-11-02T16:02:05.717Z,1.20
2022-11-02T16:04:35.064Z,1.20
2022-11-02T16:07:06.945Z,1.40
2022-11-02T16:09:38.499Z,1.50
2022-11-02T16:12:20.079Z,1.70
2022-11-02T16:14:57.634Z,1.40
2022-11-02T16:17:26.306Z,1.70
2022-11-02T16:20:08.528Z,1.27
2022-11-02T16:22:35.804Z,1.80
2022-11-02T16:25:10.896Z,1.35
2022-11-02T16:27:38.822Z,1.02
2022-11-02T16:30:06.077Z,1.70
2022-11-02T16:32:32.756Z,1.30
2022-11-02T16:35:01.041Z,1.17
2022-11-02T16:37:27.671Z,1.40
2022-11-02T16:39:54.342Z,1.70
2022-11-02T16:42:25.139Z,1.50
2022-11-02T16:45:01.113Z,1.50
2022-11-02T16:47:41.582Z,1.58
2022-11-02T16:50:24.992Z,1.55
2022-11-02T16:52:56.106Z,1.40
2022-11-02T16:55:40.822Z,1.35
2022-11-02T16:58:14.996Z,1.67
2022-11-02T17:00:54.149Z,1.50
2022-11-02T17:03:24.689Z,1.33
2022-11-02T17:05:51.358Z,1.67
2022-11-02T17:08:33.050Z,1.42
2022-11-02T17:11:02.033Z,2.38
2022-11-02T17:13:34.519Z,1.73
2022-11-02T17:16:08.560Z,1.52
2022-11-02T17:18:36.459Z,2.03
2022-11-02T17:21:22.502Z,17.23
2022-11-02T17:23:50.174Z,26.15
2022-11-02T17:26:24.972Z,62.60
2022-11-02T17:28:58.541Z,38.58
2022-11-02T17:31:34.608Z,14.43
2022-11-02T17:34:08.194Z,8.95
2022-11-02T17:36:45.397Z,3.13
2022-11-02T17:39:16.753Z,3.05
2022-11-02T17:42:03.446Z,2.15
2022-11-02T17:44:29.876Z,3.38
2022-11-02T17:46:56.382Z,2.70
2022-11-02T17:49:22.810Z,2.97
2022-11-02T17:51:49.428Z,2.25
2022-11-02T17:54:16.084Z,2.10
2022-11-02T17:56:42.603Z,2.03
2022-11-02T17:59:09.372Z,2.10
2022-11-02T18:01:36.004Z,1.83
2022-11-02T18:04:02.451Z,2.20
2022-11-02T18:06:29.747Z,2.08
2022-11-02T18:09:11.757Z,1.95
2022-11-02T18:11:38.293Z,1.83
2022-11-02T18:14:05.342Z,1.77
2022-11-02T18:16:32.251Z,2.67
2022-11-02T18:18:58.666Z,1.48
2022-11-02T18:21:25.113Z,2.33
2022-11-02T18:23:51.501Z,1.52
2022-11-02T18:26:18.012Z,1.70
2022-11-02T18:28:44.653Z,2.53
2022-11-02T18:31:11.846Z,1.98
2022-11-02T18:33:38.348Z,2.70
2022-11-02T18:36:09.748Z,1.98
2022-11-02T18:38:37.031Z,2.17
2022-11-02T18:41:28.667Z,1.88
2022-11-02T18:44:03.842Z,1.85
2022-11-02T18:46:32.893Z,2.67
2022-11-02T18:49:00.034Z,1.88
2022-11-02T18:51:27.008Z,2.85
2022-11-02T18:54:01.302Z,1.60
2022-11-02T18:56:28.131Z,2.30
2022-11-02T18:58:55.865Z,1.80
2022-11-02T19:01:24.399Z,2.35
2022-11-02T19:03:58.006Z,2.08
2022-11-02T19:06:45.622Z,2.40
2022-11-02T19:09:20.793Z,2.83
2022-11-02T19:12:21.899Z,2.33
2022-11-02T19:14:52.647Z,2.63
2022-11-02T19:17:19.054Z,2.50
2022-11-02T19:19:46.562Z,2.70
2022-11-02T19:22:14.270Z,2.55
2022-11-02T19:24:41.444Z,1.90
2022-11-02T19:27:13.643Z,3.35
2022-11-02T19:29:40.635Z,2.88
2022-11-02T19:32:07.127Z,3.33
2022-11-02T19:34:34.319Z,4.28
2022-11-02T19:37:00.796Z,3.42
2022-11-02T19:39:27.406Z,3.28
2022-11-02T19:41:54.272Z,3.00
2022-11-02T19:44:21.322Z,2.85
2022-11-02T19:46:47.908Z,2.88
2022-11-02T19:49:14.434Z,2.78
2022-11-02T19:51:41.069Z,2.83
2022-11-02T19:54:07.823Z,3.35
2022-11-02T19:56:36.025Z,4.60
2022-11-02T19:59:03.109Z,3.38
2022-11-02T20:01:32.306Z,2.50
2022-11-02T20:03:59.383Z,1.77
2022-11-02T20:06:34.039Z,2.28
2022-11-02T20:09:01.785Z,3.40
2022-11-02T20:11:28.696Z,2.65
2022-11-02T20:14:00.455Z,2.70
2022-11-02T20:16:27.776Z,2.50
2022-11-02T20:18:55.765Z,2.72
2022-11-02T20:21:31.055Z,2.10
2022-11-02T20:23:59.631Z,3.28
2022-11-02T20:26:34.785Z,2.13
2022-11-02T20:31:31.553Z,2.83
2022-11-02T20:34:01.507Z,2.13
2022-11-02T20:36:28.512Z,2.13
2022-11-02T20:38:56.256Z,2.20
2022-11-02T20:41:24.294Z,2.28
2022-11-02T20:43:54.783Z,2.15
2022-11-02T20:46:42.595Z,1.80
2022-11-02T20:49:20.919Z,2.30
2022-11-02T20:51:52.772Z,2.55
2022-11-02T20:54:20.342Z,1.95
2022-11-02T20:56:47.461Z,2.00
2022-11-02T20:59:14.687Z,2.50
2022-11-02T21:01:41.336Z,2.30
2022-11-02T21:04:08.094Z,2.60
2022-11-02T21:06:34.503Z,2.00
2022-11-02T21:09:09.013Z,2.03
2022-11-02T21:11:57.575Z,2.33
2022-11-02T21:14:24.504Z,1.90
2022-11-02T21:16:50.980Z,2.10
2022-11-02T21:19:17.414Z,2.13
2022-11-02T21:21:43.799Z,2.45
2022-11-02T21:24:10.540Z,2.42
2022-11-02T21:26:36.903Z,2.38
2022-11-02T21:29:03.936Z,2.38
2022-11-02T21:31:30.354Z,2.38
2022-11-02T21:33:56.707Z,2.40
2022-11-02T21:36:23.279Z,1.85
2022-11-02T21:38:49.713Z,2.33
2022-11-02T21:41:21.278Z,2.30
2022-11-02T21:43:51.612Z,2.70
2022-11-02T21:46:19.595Z,2.47
2022-11-02T21:48:46.330Z,2.10
2022-11-02T21:51:15.029Z,2.03
2022-11-02T21:53:44.006Z,2.33
2022-11-02T21:56:13.070Z,2.20
2022-11-02T21:58:44.677Z,2.05
2022-11-02T22:01:34.499Z,2.30
2022-11-02T22:04:01.297Z,2.45
2022-11-02T22:06:31.232Z,2.40
2022-11-02T22:08:59.794Z,1.80
2022-11-02T22:11:29.636Z,2.53
2022-11-02T22:13:58.919Z,2.28
2022-11-02T22:16:31.935Z,2.63
2022-11-02T22:19:00.375Z,3.38
2022-11-02T22:21:30.695Z,3.83
2022-11-02T22:23:57.744Z,3.97
2022-11-02T22:26:26.942Z,3.50
2022-11-02T22:28:54.301Z,4.10
2022-11-02T22:31:26.940Z,4.45
2022-11-02T22:33:55.607Z,4.15
2022-11-02T22:36:24.521Z,3.80
2022-11-02T22:38:53.428Z,3.50
2022-11-02T22:41:30.939Z,2.40
2022-11-02T22:44:03.190Z,2.92
2022-11-02T22:46:31.329Z,2.33
2022-11-02T22:48:59.382Z,2.25
2022-11-02T22:51:28.321Z,2.40
2022-11-02T22:53:55.439Z,2.15
2022-11-02T22:56:23.459Z,2.25
2022-11-02T22:58:50.558Z,1.60
2022-11-02T23:01:21.807Z,1.88
2022-11-02T23:03:49.492Z,2.97
2022-11-02T23:06:16.951Z,1.83
2022-11-02T23:08:45.753Z,2.42
2022-11-02T23:11:23.360Z,2.10
2022-11-02T23:14:25.516Z,2.20
2022-11-02T23:16:52.103Z,1.90
2022-11-02T23:19:30.833Z,2.33
2022-11-02T23:22:19.264Z,2.08
2022-11-02T23:25:05.668Z,2.53
2022-11-02T23:27:33.815Z,2.58
2022-11-02T23:30:19.319Z,2.35
2022-11-02T23:32:46.864Z,1.95
2022-11-02T23:35:31.946Z,2.20
2022-11-02T23:38:04.157Z,1.85
2022-11-02T23:40:31.605Z,2.40
2022-11-02T23:42:58.387Z,2.05
2022-11-02T23:45:24.947Z,2.20
2022-11-02T23:47:57.186Z,2.20
2022-11-02T23:50:45.401Z,2.30
2022-11-02T23:53:32.879Z,2.65
2022-11-02T23:56:18.239Z,2.80
2022-11-02T23:58:45.461Z,2.22
